Time,TemperatureF,DewpointF,PressureIn,WindDirection,WindDirectionDegrees,WindSpeedMPH,WindSpeedGustMPH,Humidity,HourlyPrecipIn,Conditions,Clouds,dailyrainin,SoftwareType,DateUTC
2013-09-26 00:03:00,48.6,-3.6,29.82,SE,135,4.0,7.0,11,0.00,,,0.00,meteohub,2013-09-26 07:03:00,
2013-09-26 00:08:00,48.6,-5.6,29.82,South,180,4.0,7.0,10,0.00,,,0.00,meteohub,2013-09-26 07:08:00,
2013-09-26 00:13:00,48.6,-5.6,29.82,South,180,8.0,9.0,10,0.00,,,0.00,meteohub,2013-09-26 07:13:00,
2013-09-26 01:08:00,48.2,-5.8,29.81,South,180,8.0,10.0,10,0.00,,,0.00,meteohub,2013-09-26 08:08:00,
2013-09-26 01:13:00,47.7,-6.3,29.81,SSE,158,9.0,10.0,10,0.00,,,0.00,meteohub,2013-09-26 08:13:00,
2013-09-26 01:18:00,47.7,-6.3,29.81,SSE,158,6.0,10.0,10,0.00,,,0.00,meteohub,2013-09-26 08:18:00,
2013-09-26 01:23:00,47.5,-6.5,29.80,SSW,203,6.0,11.0,10,0.00,,,0.00,meteohub,2013-09-26 08:23:00,
2013-09-26 01:45:00,47.1,-6.7,29.81,South,180,5.0,13.0,10,0.00,,,0.00,meteohub,2013-09-26 08:45:00,
2013-09-26 01:50:00,46.9,-6.9,29.81,SE,135,7.0,13.0,10,0.00,,,0.00,meteohub,2013-09-26 08:50:00,
2013-09-26 01:55:00,46.6,-5.1,29.81,SW,225,4.0,13.0,11,0.00,,,0.00,meteohub,2013-09-26 08:55:00,
2013-09-26 02:00:00,46.4,-5.3,29.81,South,180,8.0,11.0,11,0.00,,,0.00,meteohub,2013-09-26 09:00:00,
2013-09-26 02:05:00,46.2,-5.4,29.81,South,180,8.0,11.0,11,0.00,,,0.00,meteohub,2013-09-26 09:05:00,
2013-09-26 02:10:00,46.2,-5.4,29.81,West,270,4.0,11.0,11,0.00,,,0.00,meteohub,2013-09-26 09:10:00,
2013-09-26 02:15:00,46.0,-3.8,29.81,South,180,6.0,9.0,12,0.00,,,0.00,meteohub,2013-09-26 09:15:00,
2013-09-26 02:20:00,45.9,-4.0,29.81,South,180,6.0,9.0,12,0.00,,,0.00,meteohub,2013-09-26 09:20:00,
2013-09-26 02:25:00,45.7,-2.4,29.80,NE,45,4.0,11.0,13,0.00,,,0.00,meteohub,2013-09-26 09:25:00,
2013-09-26 02:30:00,45.7,-2.4,29.81,SW,225,8.0,11.0,13,0.00,,,0.00,meteohub,2013-09-26 09:30:00,
2013-09-26 02:35:00,45.5,-0.9,29.80,SW,225,2.0,11.0,14,0.00,,,0.00,meteohub,2013-09-26 09:35:00,
2013-09-26 02:40:00,45.3,-1.1,29.80,SW,225,4.0,11.0,14,0.00,,,0.00,meteohub,2013-09-26 09:40:00,
2013-09-26 02:45:00,45.1,0.1,29.80,SW,225,3.0,11.0,15,0.00,,,0.00,meteohub,2013-09-26 09:45:00,
2013-09-26 02:50:00,45.0,0.1,29.80,South,180,8.0,10.0,15,0.00,,,0.00,meteohub,2013-09-26 09:50:00,
2013-09-26 02:55:00,44.8,1.2,29.80,East,90,4.0,7.0,16,0.00,,,0.00,meteohub,2013-09-26 09:55:00,
2013-09-26 03:00:00,44.8,3.9,29.80,SSE,158,6.0,15.0,18,0.00,,,0.00,meteohub,2013-09-26 10:00:00,
2013-09-26 03:05:00,44.4,4.6,29.80,South,180,4.0,15.0,19,0.00,,,0.00,meteohub,2013-09-26 10:05:00,
2013-09-26 03:10:00,44.2,4.6,29.80,SW,225,4.0,15.0,19,0.00,,,0.00,meteohub,2013-09-26 10:10:00,
2013-09-26 03:15:00,44.2,6.8,29.79,SW,225,6.0,10.0,21,0.00,,,0.00,meteohub,2013-09-26 10:15:00,
2013-09-26 03:20:00,43.9,6.4,29.79,SE,135,4.0,10.0,21,0.00,,,0.00,meteohub,2013-09-26 10:20:00,
2013-09-26 03:25:00,43.7,7.3,29.79,West,270,9.0,9.0,22,0.00,,,0.00,meteohub,2013-09-26 10:25:00,
2013-09-26 03:30:00,43.5,8.2,29.79,NE,45,3.0,11.0,23,0.00,,,0.00,meteohub,2013-09-26 10:30:00,
2013-09-26 03:35:00,43.3,9.0,29.79,East,90,4.0,11.0,24,0.00,,,0.00,meteohub,2013-09-26 10:35:00,
2013-09-26 03:40:00,43.2,11.5,29.79,NE,45,8.0,11.0,27,0.00,,,0.00,meteohub,2013-09-26 10:40:00,
2013-09-26 03:45:00,43.0,9.5,29.80,South,180,3.0,11.0,25,0.00,,,0.00,meteohub,2013-09-26 10:45:00,
2013-09-26 03:50:00,42.8,11.1,29.80,SW,225,4.0,8.0,27,0.00,,,0.00,meteohub,2013-09-26 10:50:00,
2013-09-26 03:55:00,42.6,11.8,29.80,South,180,4.0,14.0,28,0.00,,,0.00,meteohub,2013-09-26 10:55:00,
2013-09-26 04:00:00,42.4,11.7,29.80,SW,225,4.0,14.0,28,0.00,,,0.00,meteohub,2013-09-26 11:00:00,
2013-09-26 04:05:00,42.4,11.7,29.79,SW,225,4.0,14.0,28,0.00,,,0.00,meteohub,2013-09-26 11:05:00,
2013-09-26 04:10:00,42.4,10.8,29.79,South,180,3.0,8.0,27,0.00,,,0.00,meteohub,2013-09-26 11:10:00,
2013-09-26 04:15:00,42.4,13.1,29.79,SW,225,5.0,8.0,30,0.00,,,0.00,meteohub,2013-09-26 11:15:00,
2013-09-26 04:20:00,42.3,13.8,29.79,NE,45,8.0,8.0,31,0.00,,,0.00,meteohub,2013-09-26 11:20:00,
2013-09-26 04:25:00,42.1,14.4,29.79,SW,225,3.0,8.0,32,0.00,,,0.00,meteohub,2013-09-26 11:25:00,
2013-09-26 04:30:00,41.9,14.9,29.79,SW,225,4.0,8.0,33,0.00,,,0.00,meteohub,2013-09-26 11:30:00,
2013-09-26 04:35:00,41.7,16.2,29.79,SSW,203,5.0,8.0,35,0.00,,,0.00,meteohub,2013-09-26 11:35:00,
2013-09-26 04:40:00,41.5,14.5,29.79,South,180,6.0,8.0,33,0.00,,,0.00,meteohub,2013-09-26 11:40:00,
2013-09-26 04:45:00,41.7,14.7,29.79,East,90,8.0,8.0,33,0.00,,,0.00,meteohub,2013-09-26 11:45:00,
2013-09-26 04:50:00,41.7,16.2,29.78,South,180,6.0,8.0,35,0.00,,,0.00,meteohub,2013-09-26 11:50:00,
2013-09-26 04:55:00,41.4,15.8,29.78,South,180,2.0,8.0,35,0.00,,,0.00,meteohub,2013-09-26 11:55:00,
2013-09-26 05:00:00,41.4,14.4,29.78,South,180,3.0,8.0,33,0.00,,,0.00,meteohub,2013-09-26 12:00:00,
2013-09-26 05:05:00,41.5,13.8,29.78,South,180,4.0,9.0,32,0.00,,,0.00,meteohub,2013-09-26 12:05:00,
2013-09-26 05:10:00,41.7,14.0,29.78,SE,135,4.0,9.0,32,0.00,,,0.00,meteohub,2013-09-26 12:10:00,
2013-09-26 05:15:00,41.7,14.0,29.78,West,270,3.0,9.0,32,0.00,,,0.00,meteohub,2013-09-26 12:15:00,
2013-09-26 05:20:00,41.5,15.3,29.78,East,90,4.0,8.0,34,0.00,,,0.00,meteohub,2013-09-26 12:20:00,
2013-09-26 05:25:00,41.4,15.8,29.79,South,180,4.0,8.0,35,0.00,,,0.00,meteohub,2013-09-26 12:25:00,
2013-09-26 05:30:00,41.2,17.4,29.78,South,180,3.0,8.0,38,0.00,,,0.00,meteohub,2013-09-26 12:30:00,
2013-09-26 05:35:00,40.5,20.3,29.79,NE,45,4.0,8.0,44,0.00,,,0.00,meteohub,2013-09-26 12:35:00,
2013-09-26 05:40:00,39.9,20.8,29.79,North,0,2.0,8.0,46,0.00,,,0.00,meteohub,2013-09-26 12:40:00,
2013-09-26 05:45:00,39.4,21.7,29.79,South,180,2.0,7.0,49,0.00,,,0.00,meteohub,2013-09-26 12:45:00,
2013-09-26 05:50:00,38.8,25.3,29.79,North,0,4.0,7.0,58,0.00,,,0.00,meteohub,2013-09-26 12:50:00,
2013-09-26 05:55:00,38.1,26.2,29.80,North,0,6.0,6.0,62,0.00,,,0.00,meteohub,2013-09-26 12:55:00,
2013-09-26 06:00:00,37.4,25.9,29.80,NE,45,2.0,6.0,63,0.00,,,0.00,meteohub,2013-09-26 13:00:00,
2013-09-26 06:05:00,37.0,27.1,29.81,West,270,4.0,6.0,67,0.00,,,0.00,meteohub,2013-09-26 13:05:00,
2013-09-26 06:10:00,36.7,28.2,29.81,West,270,6.0,6.0,71,0.00,,,0.00,meteohub,2013-09-26 13:10:00,
2013-09-26 06:15:00,36.5,28.0,29.81,West,270,2.0,10.0,71,0.00,,,0.00,meteohub,2013-09-26 13:15:00,
2013-09-26 06:20:00,36.5,28.8,29.81,East,90,4.0,10.0,73,0.00,,,0.00,meteohub,2013-09-26 13:20:00,
2013-09-26 06:25:00,36.5,29.3,29.81,NE,45,5.0,10.0,75,0.00,,,0.00,meteohub,2013-09-26 13:25:00,
2013-09-26 06:30:00,36.3,29.5,29.81,North,0,3.0,8.0,76,0.00,,,0.00,meteohub,2013-09-26 13:30:00,
2013-09-26 06:35:00,36.1,28.9,29.81,West,270,5.0,8.0,75,0.00,,,0.00,meteohub,2013-09-26 13:35:00,
2013-09-26 06:40:00,36.1,28.6,29.81,West,270,7.0,7.0,74,0.00,,,0.00,meteohub,2013-09-26 13:40:00,
2013-09-26 06:45:00,36.1,29.3,29.82,North,0,3.0,5.0,76,0.00,,,0.00,meteohub,2013-09-26 13:45:00,
2013-09-26 06:50:00,36.1,28.9,29.82,North,0,2.0,7.0,75,0.00,,,0.00,meteohub,2013-09-26 13:50:00,
2013-09-26 06:55:00,36.1,28.6,29.82,South,180,1.0,7.0,74,0.00,,,0.00,meteohub,2013-09-26 13:55:00,
2013-09-26 07:00:00,36.1,28.4,29.82,South,180,1.0,7.0,73,0.00,,,0.00,meteohub,2013-09-26 14:00:00,
2013-09-26 07:05:00,36.1,28.0,29.82,South,180,2.0,7.0,72,0.00,,,0.00,meteohub,2013-09-26 14:05:00,
2013-09-26 07:11:00,36.3,28.2,29.82,South,180,2.0,7.0,72,0.00,,,0.00,meteohub,2013-09-26 14:11:00,
2013-09-26 07:16:00,36.9,28.4,29.82,South,180,4.0,7.0,71,0.00,,,0.00,meteohub,2013-09-26 14:16:00,
2013-09-26 07:22:00,38.3,29.3,29.82,South,180,2.0,7.0,70,0.00,,,0.00,meteohub,2013-09-26 14:22:00,
2013-09-26 07:27:00,39.0,29.7,29.82,SW,225,3.0,7.0,69,0.00,,,0.00,meteohub,2013-09-26 14:27:00,
2013-09-26 07:32:00,39.7,30.4,29.82,South,180,2.0,4.0,69,0.00,,,0.00,meteohub,2013-09-26 14:32:00,
2013-09-26 07:37:00,40.3,30.9,29.82,South,180,3.0,4.0,69,0.00,,,0.00,meteohub,2013-09-26 14:37:00,
2013-09-26 07:42:00,40.6,31.3,29.82,SW,225,2.0,4.0,69,0.00,,,0.00,meteohub,2013-09-26 14:42:00,
2013-09-26 07:47:00,40.8,31.5,29.82,SW,225,2.0,4.0,69,0.00,,,0.00,meteohub,2013-09-26 14:47:00,
2013-09-26 07:52:00,41.2,31.8,29.82,SW,225,2.0,4.0,69,0.00,,,0.00,meteohub,2013-09-26 14:52:00,
2013-09-26 07:57:00,41.4,31.6,29.82,West,270,3.0,4.0,68,0.00,,,0.00,meteohub,2013-09-26 14:57:00,
2013-09-26 08:03:00,41.7,31.6,29.82,West,270,3.0,4.0,67,0.00,,,0.00,meteohub,2013-09-26 15:03:00,
2013-09-26 08:08:00,41.9,31.8,29.82,North,0,3.0,5.0,67,0.00,,,0.00,meteohub,2013-09-26 15:08:00,
2013-09-26 08:13:00,42.1,32.4,29.83,WSW,248,4.0,5.0,68,0.00,,,0.00,meteohub,2013-09-26 15:13:00,
2013-09-26 08:18:00,41.7,32.0,29.83,NE,45,3.0,5.0,68,0.00,,,0.00,meteohub,2013-09-26 15:18:00,
2013-09-26 08:23:00,41.7,32.7,29.83,West,270,4.0,5.0,70,0.00,,,0.00,meteohub,2013-09-26 15:23:00,
2013-09-26 08:28:00,41.5,32.5,29.83,West,270,4.0,5.0,70,0.00,,,0.00,meteohub,2013-09-26 15:28:00,
2013-09-26 08:33:00,41.5,32.5,29.84,South,180,3.0,5.0,70,0.00,,,0.00,meteohub,2013-09-26 15:33:00,
2013-09-26 08:38:00,42.3,33.3,29.84,West,270,4.0,8.0,70,0.00,,,0.00,meteohub,2013-09-26 15:38:00,
2013-09-26 08:43:00,42.4,33.1,29.83,SW,225,2.0,8.0,69,0.00,,,0.00,meteohub,2013-09-26 15:43:00,
2013-09-26 08:48:00,43.2,33.3,29.84,SW,225,3.0,8.0,68,0.00,,,0.00,meteohub,2013-09-26 15:48:00,
2013-09-26 08:53:00,42.6,32.7,29.84,South,180,3.0,8.0,68,0.00,,,0.00,meteohub,2013-09-26 15:53:00,
2013-09-26 08:58:00,43.0,33.1,29.84,NE,45,5.0,8.0,68,0.00,,,0.00,meteohub,2013-09-26 15:58:00,
2013-09-26 09:03:00,43.0,33.1,29.84,NW,315,4.0,8.0,68,0.00,,,0.00,meteohub,2013-09-26 16:03:00,
2013-09-26 09:08:00,43.0,33.1,29.84,NE,45,4.0,7.0,68,0.00,,,0.00,meteohub,2013-09-26 16:08:00,
2013-09-26 09:13:00,42.8,32.9,29.84,East,90,5.0,7.0,68,0.00,,,0.00,meteohub,2013-09-26 16:13:00,
2013-09-26 09:18:00,42.4,33.1,29.85,SW,225,3.0,8.0,69,0.00,,,0.00,meteohub,2013-09-26 16:18:00,
2013-09-26 09:24:00,42.8,32.9,29.84,SW,225,2.0,8.0,68,0.00,,,0.00,meteohub,2013-09-26 16:24:00,
2013-09-26 09:29:00,43.3,33.1,29.85,SW,225,3.0,8.0,67,0.00,,,0.00,meteohub,2013-09-26 16:29:00,
2013-09-26 09:34:00,44.6,34.0,29.85,NNW,338,5.0,8.0,66,0.00,,,0.00,meteohub,2013-09-26 16:34:00,
2013-09-26 09:39:00,44.2,33.3,29.85,SSW,203,9.0,9.0,65,0.00,,,0.00,meteohub,2013-09-26 16:39:00,
2013-09-26 09:44:00,43.9,33.3,29.85,SW,225,4.0,5.0,66,0.00,,,0.00,meteohub,2013-09-26 16:44:00,
2013-09-26 09:49:00,43.9,33.6,29.85,West,270,8.0,9.0,67,0.00,,,0.00,meteohub,2013-09-26 16:49:00,
2013-09-26 09:54:00,43.2,32.9,29.85,East,90,2.0,9.0,67,0.00,,,0.00,meteohub,2013-09-26 16:54:00,
2013-09-26 09:59:00,42.8,32.9,29.86,South,180,7.0,8.0,68,0.00,,,0.00,meteohub,2013-09-26 16:59:00,
2013-09-26 10:04:00,42.8,33.3,29.85,West,270,2.0,8.0,69,0.00,,,0.00,meteohub,2013-09-26 17:04:00,
2013-09-26 10:09:00,43.0,33.4,29.86,SW,225,2.0,7.0,69,0.00,,,0.00,meteohub,2013-09-26 17:09:00,
2013-09-26 10:14:00,43.3,32.7,29.86,WSW,248,4.0,8.0,66,0.00,,,0.00,meteohub,2013-09-26 17:14:00,
2013-09-26 10:19:00,44.2,33.6,29.86,WSW,248,4.0,8.0,66,0.00,,,0.00,meteohub,2013-09-26 17:19:00,
2013-09-26 10:24:00,45.1,33.3,29.86,West,270,3.0,8.0,63,0.00,,,0.00,meteohub,2013-09-26 17:24:00,
2013-09-26 10:29:00,45.1,32.9,29.86,SW,225,4.0,8.0,62,0.00,,,0.00,meteohub,2013-09-26 17:29:00,
2013-09-26 10:34:00,45.0,32.7,29.86,South,180,4.0,8.0,62,0.00,,,0.00,meteohub,2013-09-26 17:34:00,
2013-09-26 10:39:00,45.0,33.1,29.86,SW,225,3.0,8.0,63,0.00,,,0.00,meteohub,2013-09-26 17:39:00,
2013-09-26 10:44:00,44.8,32.9,29.86,WSW,248,4.0,8.0,63,0.00,,,0.00,meteohub,2013-09-26 17:44:00,
2013-09-26 10:49:00,43.7,32.4,29.86,West,270,2.0,4.0,64,0.00,,,0.00,meteohub,2013-09-26 17:49:00,
2013-09-26 10:55:00,43.0,32.4,29.86,West,270,3.0,5.0,66,0.00,,,0.00,meteohub,2013-09-26 17:55:00,
2013-09-26 11:00:00,43.2,32.9,29.86,SW,225,4.0,5.0,67,0.00,,,0.00,meteohub,2013-09-26 18:00:00,
2013-09-26 11:05:00,43.3,32.7,29.86,West,270,2.0,5.0,66,0.00,,,0.00,meteohub,2013-09-26 18:05:00,
2013-09-26 11:10:00,43.0,32.7,29.87,West,270,4.0,5.0,67,0.00,,,0.00,meteohub,2013-09-26 18:10:00,
2013-09-26 11:15:00,42.4,32.2,29.86,West,270,2.0,5.0,67,0.00,,,0.00,meteohub,2013-09-26 18:15:00,
2013-09-26 11:20:00,42.3,32.5,29.86,West,270,4.0,4.0,68,0.00,,,0.00,meteohub,2013-09-26 18:20:00,
2013-09-26 11:25:00,42.6,32.7,29.86,West,270,3.0,4.0,68,0.00,,,0.00,meteohub,2013-09-26 18:25:00,
2013-09-26 11:30:00,42.8,32.5,29.87,North,0,4.0,4.0,67,0.00,,,0.00,meteohub,2013-09-26 18:30:00,
2013-09-26 11:35:00,42.6,32.4,29.87,SW,225,4.0,4.0,67,0.00,,,0.00,meteohub,2013-09-26 18:35:00,
2013-09-26 11:40:00,43.0,32.7,29.87,West,270,2.0,4.0,67,0.00,,,0.00,meteohub,2013-09-26 18:40:00,
2013-09-26 11:45:00,42.8,32.2,29.87,SW,225,3.0,4.0,66,0.00,,,0.00,meteohub,2013-09-26 18:45:00,
2013-09-26 11:50:00,43.0,32.4,29.87,West,270,2.0,4.0,66,0.00,,,0.00,meteohub,2013-09-26 18:50:00,
2013-09-26 11:55:00,43.3,31.6,29.87,South,180,2.0,4.0,63,0.00,,,0.00,meteohub,2013-09-26 18:55:00,
2013-09-26 12:00:00,43.5,31.8,29.87,SSW,203,2.0,4.0,63,0.00,,,0.00,meteohub,2013-09-26 19:00:00,
2013-09-26 12:05:00,43.7,32.0,29.87,SE,135,4.0,4.0,63,0.00,,,0.00,meteohub,2013-09-26 19:05:00,
2013-09-26 12:11:00,44.1,31.8,29.87,SW,225,3.0,4.0,62,0.00,,,0.00,meteohub,2013-09-26 19:11:00,
2013-09-26 12:16:00,44.2,31.6,29.87,SW,225,3.0,6.0,61,0.00,,,0.00,meteohub,2013-09-26 19:16:00,
2013-09-26 12:21:00,44.6,32.0,29.87,SW,225,4.0,6.0,61,0.00,,,0.00,meteohub,2013-09-26 19:21:00,
2013-09-26 12:26:00,44.4,31.5,29.87,SW,225,4.0,6.0,60,0.00,,,0.00,meteohub,2013-09-26 19:26:00,
2013-09-26 12:31:00,44.1,30.7,29.87,West,270,3.0,4.0,59,0.00,,,0.00,meteohub,2013-09-26 19:31:00,
2013-09-26 12:36:00,43.9,31.3,29.87,West,270,3.0,4.0,61,0.00,,,0.00,meteohub,2013-09-26 19:36:00,
2013-09-26 12:41:00,43.9,31.3,29.88,West,270,4.0,7.0,61,0.00,,,0.00,meteohub,2013-09-26 19:41:00,
2013-09-26 12:47:00,43.9,30.6,29.88,West,270,3.0,4.0,59,0.00,,,0.00,meteohub,2013-09-26 19:47:00,
2013-09-26 12:52:00,43.7,29.8,29.88,West,270,4.0,4.0,58,0.00,,,0.00,meteohub,2013-09-26 19:52:00,
2013-09-26 12:57:00,43.5,29.7,29.88,SW,225,4.0,4.0,58,0.00,,,0.00,meteohub,2013-09-26 19:57:00,
2013-09-26 13:02:00,43.5,29.7,29.88,West,270,4.0,4.0,58,0.00,,,0.00,meteohub,2013-09-26 20:02:00,
2013-09-26 13:07:00,43.9,29.7,29.88,West,270,2.0,7.0,57,0.00,,,0.00,meteohub,2013-09-26 20:07:00,
2013-09-26 13:12:00,44.1,28.0,29.88,West,270,3.0,8.0,53,0.00,,,0.00,meteohub,2013-09-26 20:12:00,
2013-09-26 13:17:00,44.2,28.2,29.88,West,270,3.0,8.0,53,0.00,,,0.00,meteohub,2013-09-26 20:17:00,
2013-09-26 13:22:00,44.4,27.5,29.88,West,270,4.0,8.0,51,0.00,,,0.00,meteohub,2013-09-26 20:22:00,
2013-09-26 13:27:00,44.6,27.1,29.88,West,270,4.0,8.0,50,0.00,,,0.00,meteohub,2013-09-26 20:27:00,
2013-09-26 13:32:00,45.3,27.3,29.88,West,270,4.0,5.0,49,0.00,,,0.00,meteohub,2013-09-26 20:32:00,
2013-09-26 13:37:00,45.9,26.2,29.88,West,270,4.0,5.0,46,0.00,,,0.00,meteohub,2013-09-26 20:37:00,
2013-09-26 13:42:00,45.7,26.1,29.88,West,270,4.0,5.0,46,0.00,,,0.00,meteohub,2013-09-26 20:42:00,
2013-09-26 13:47:00,46.9,26.8,29.88,West,270,4.0,7.0,45,0.00,,,0.00,meteohub,2013-09-26 20:47:00,
2013-09-26 13:52:00,47.3,25.3,29.89,West,270,4.0,12.0,42,0.00,,,0.00,meteohub,2013-09-26 20:52:00,
2013-09-26 13:57:00,47.8,24.6,29.89,North,0,4.0,12.0,40,0.00,,,0.00,meteohub,2013-09-26 20:57:00,
2013-09-26 14:02:00,47.8,24.6,29.89,West,270,5.0,12.0,40,0.00,,,0.00,meteohub,2013-09-26 21:02:00,
2013-09-26 14:07:00,47.3,24.3,29.89,West,270,4.0,7.0,40,0.00,,,0.00,meteohub,2013-09-26 21:07:00,
2013-09-26 14:12:00,47.5,23.7,29.89,West,270,5.0,9.0,39,0.00,,,0.00,meteohub,2013-09-26 21:12:00,
2013-09-26 14:17:00,47.7,23.9,29.89,West,270,4.0,9.0,39,0.00,,,0.00,meteohub,2013-09-26 21:17:00,
2013-09-26 14:22:00,48.2,23.7,29.89,West,270,3.0,9.0,38,0.00,,,0.00,meteohub,2013-09-26 21:22:00,
2013-09-26 14:27:00,47.8,23.5,29.89,West,270,4.0,9.0,38,0.00,,,0.00,meteohub,2013-09-26 21:27:00,
2013-09-26 14:32:00,47.8,22.8,29.90,West,270,4.0,8.0,37,0.00,,,0.00,meteohub,2013-09-26 21:32:00,
2013-09-26 14:37:00,48.0,23.5,29.90,West,270,4.0,8.0,38,0.00,,,0.00,meteohub,2013-09-26 21:37:00,
2013-09-26 14:42:00,47.8,23.5,29.90,SW,225,2.0,8.0,38,0.00,,,0.00,meteohub,2013-09-26 21:42:00,
2013-09-26 14:47:00,48.0,23.5,29.90,SW,225,6.0,8.0,38,0.00,,,0.00,meteohub,2013-09-26 21:47:00,
2013-09-26 14:52:00,47.5,23.2,29.90,West,270,4.0,8.0,38,0.00,,,0.00,meteohub,2013-09-26 21:52:00,
2013-09-26 14:57:00,47.3,23.0,29.90,North,0,5.0,8.0,38,0.00,,,0.00,meteohub,2013-09-26 21:57:00,
2013-09-26 15:02:00,46.9,22.6,29.91,West,270,6.0,9.0,38,0.00,,,0.00,meteohub,2013-09-26 22:02:00,
2013-09-26 15:12:00,47.1,20.8,29.91,SE,135,4.0,9.0,35,0.00,,,0.00,meteohub,2013-09-26 22:12:00,
2013-09-26 15:17:00,46.8,19.9,29.91,North,0,3.0,8.0,34,0.00,,,0.00,meteohub,2013-09-26 22:17:00,
2013-09-26 15:22:00,46.2,20.1,29.91,North,0,2.0,7.0,35,0.00,,,0.00,meteohub,2013-09-26 22:22:00,
2013-09-26 15:27:00,46.4,19.6,29.91,West,270,5.0,7.0,34,0.00,,,0.00,meteohub,2013-09-26 22:27:00,
2013-09-26 15:32:00,46.2,19.4,29.91,West,270,2.0,5.0,34,0.00,,,0.00,meteohub,2013-09-26 22:32:00,
2013-09-26 15:37:00,45.9,19.0,29.91,West,270,4.0,5.0,34,0.00,,,0.00,meteohub,2013-09-26 22:37:00,
2013-09-26 15:42:00,45.9,19.8,29.91,West,270,2.0,5.0,35,0.00,,,0.00,meteohub,2013-09-26 22:42:00,
2013-09-26 15:47:00,45.9,19.0,29.91,West,270,2.0,4.0,34,0.00,,,0.00,meteohub,2013-09-26 22:47:00,
2013-09-26 15:52:00,46.2,18.7,29.91,West,270,3.0,8.0,33,0.00,,,0.00,meteohub,2013-09-26 22:52:00,
2013-09-26 15:57:00,46.4,19.6,29.91,West,270,2.0,8.0,34,0.00,,,0.00,meteohub,2013-09-26 22:57:00,
2013-09-26 16:02:00,46.6,18.3,29.91,South,180,3.0,8.0,32,0.00,,,0.00,meteohub,2013-09-26 23:02:00,
2013-09-26 16:07:00,46.4,17.4,29.91,SW,225,4.0,6.0,31,0.00,,,0.00,meteohub,2013-09-26 23:07:00,
2013-09-26 16:12:00,46.4,15.8,29.91,West,270,4.0,10.0,29,0.00,,,0.00,meteohub,2013-09-26 23:12:00,
2013-09-26 16:17:00,46.2,15.6,29.91,West,270,5.0,10.0,29,0.00,,,0.00,meteohub,2013-09-26 23:17:00,
2013-09-26 16:22:00,46.2,16.5,29.91,West,270,7.0,10.0,30,0.00,,,0.00,meteohub,2013-09-26 23:22:00,
2013-09-26 16:27:00,45.9,16.9,29.92,West,270,2.0,10.0,31,0.00,,,0.00,meteohub,2013-09-26 23:27:00,
2013-09-26 16:32:00,45.7,16.7,29.91,SW,225,5.0,9.0,31,0.00,,,0.00,meteohub,2013-09-26 23:32:00,
2013-09-26 16:37:00,45.7,16.0,29.92,West,270,4.0,9.0,30,0.00,,,0.00,meteohub,2013-09-26 23:37:00,
2013-09-26 16:42:00,45.7,16.7,29.92,West,270,4.0,9.0,31,0.00,,,0.00,meteohub,2013-09-26 23:42:00,
2013-09-26 16:47:00,45.7,17.4,29.92,West,270,3.0,7.0,32,0.00,,,0.00,meteohub,2013-09-26 23:47:00,
2013-09-26 16:52:00,45.5,17.4,29.92,West,270,5.0,6.0,32,0.00,,,0.00,meteohub,2013-09-26 23:52:00,
2013-09-26 16:57:00,45.3,18.0,29.92,West,270,8.0,8.0,33,0.00,,,0.00,meteohub,2013-09-26 23:57:00,
2013-09-26 17:02:00,45.3,18.0,29.92,SW,225,3.0,8.0,33,0.00,,,0.00,meteohub,2013-09-27 00:02:00,
2013-09-26 17:10:00,45.3,18.0,29.92,West,270,6.0,8.0,33,0.00,,,0.00,meteohub,2013-09-27 00:10:00,
2013-09-26 17:15:00,45.1,17.1,29.92,West,270,3.0,8.0,32,0.00,,,0.00,meteohub,2013-09-27 00:15:00,
2013-09-26 17:20:00,45.0,16.9,29.92,West,270,2.0,6.0,32,0.00,,,0.00,meteohub,2013-09-27 00:20:00,
2013-09-26 17:25:00,44.8,16.0,29.92,West,270,4.0,6.0,31,0.00,,,0.00,meteohub,2013-09-27 00:25:00,
2013-09-26 17:30:00,44.8,15.3,29.92,West,270,4.0,6.0,30,0.00,,,0.00,meteohub,2013-09-27 00:30:00,
2013-09-26 17:35:00,44.6,15.1,29.92,West,270,2.0,7.0,30,0.00,,,0.00,meteohub,2013-09-27 00:35:00,
2013-09-26 17:40:00,44.4,14.9,29.92,North,-999,-999.0,7.0,30,0.00,,,0.00,meteohub,2013-09-27 00:40:00,
2013-09-26 17:45:00,44.2,14.7,29.92,North,-999,-999.0,7.0,30,0.00,,,0.00,meteohub,2013-09-27 00:45:00,
2013-09-26 17:50:00,44.1,16.2,29.92,North,-999,-999.0,6.0,32,0.00,,,0.00,meteohub,2013-09-27 00:50:00,
2013-09-26 17:55:00,43.7,15.1,29.93,North,-999,-999.0,-999.0,31,0.00,,,0.00,meteohub,2013-09-27 00:55:00,
2013-09-26 18:00:00,43.5,15.6,29.93,North,-999,-999.0,-999.0,32,0.00,,,0.00,meteohub,2013-09-27 01:00:00,
2013-09-26 18:05:00,43.3,14.7,29.93,West,270,2.0,-999.0,31,0.00,,,0.00,meteohub,2013-09-27 01:05:00,
2013-09-26 18:10:00,43.3,15.4,29.93,West,270,2.0,3.0,32,0.00,,,0.00,meteohub,2013-09-27 01:10:00,
2013-09-26 18:16:00,43.2,15.3,29.93,West,270,1.0,3.0,32,0.00,,,0.00,meteohub,2013-09-27 01:16:00,
2013-09-26 18:21:00,42.8,15.6,29.93,West,270,2.0,3.0,33,0.00,,,0.00,meteohub,2013-09-27 01:21:00,
2013-09-26 18:26:00,42.6,16.2,29.93,West,270,3.0,3.0,34,0.00,,,0.00,meteohub,2013-09-27 01:26:00,
2013-09-26 18:31:00,42.3,15.8,29.93,West,270,2.0,2.0,34,0.00,,,0.00,meteohub,2013-09-27 01:31:00,
2013-09-26 18:36:00,41.7,15.4,29.93,West,270,1.0,2.0,34,0.00,,,0.00,meteohub,2013-09-27 01:36:00,
2013-09-26 18:41:00,41.0,15.4,29.93,West,270,2.0,2.0,35,0.00,,,0.00,meteohub,2013-09-27 01:41:00,
2013-09-26 18:46:00,40.3,15.4,29.94,West,270,2.0,2.0,36,0.00,,,0.00,meteohub,2013-09-27 01:46:00,
2013-09-26 18:51:00,39.4,15.3,29.94,West,270,3.0,3.0,37,0.00,,,0.00,meteohub,2013-09-27 01:51:00,
2013-09-26 18:57:00,38.7,15.3,29.94,West,270,0.0,2.0,38,0.00,,,0.00,meteohub,2013-09-27 01:57:00,
2013-09-26 19:02:00,37.9,15.3,29.94,West,270,1.0,3.0,39,0.00,,,0.00,meteohub,2013-09-27 02:02:00,
2013-09-26 19:07:00,37.6,15.4,29.94,West,270,2.0,3.0,40,0.00,,,0.00,meteohub,2013-09-27 02:07:00,
2013-09-26 19:12:00,37.2,15.1,29.94,West,270,1.0,2.0,40,0.00,,,0.00,meteohub,2013-09-27 02:12:00,
2013-09-26 19:17:00,36.9,16.0,29.94,West,270,1.0,2.0,42,0.00,,,0.00,meteohub,2013-09-27 02:17:00,
2013-09-26 19:22:00,36.5,16.7,29.94,West,270,2.0,2.0,44,0.00,,,0.00,meteohub,2013-09-27 02:22:00,
2013-09-26 19:27:00,36.3,17.6,29.94,West,270,2.0,2.0,46,0.00,,,0.00,meteohub,2013-09-27 02:27:00,
2013-09-26 19:32:00,36.0,17.2,29.95,West,270,1.0,2.0,46,0.00,,,0.00,meteohub,2013-09-27 02:32:00,
2013-09-26 19:37:00,35.8,18.0,29.95,West,270,1.0,2.0,48,0.00,,,0.00,meteohub,2013-09-27 02:37:00,
2013-09-26 19:42:00,35.4,18.1,29.94,West,270,0.0,2.0,49,0.00,,,0.00,meteohub,2013-09-27 02:42:00,
2013-09-26 19:47:00,35.1,17.8,29.95,West,270,2.0,2.0,49,0.00,,,0.00,meteohub,2013-09-27 02:47:00,
2013-09-26 19:52:00,34.7,17.4,29.95,West,270,1.0,2.0,49,0.00,,,0.00,meteohub,2013-09-27 02:52:00,
2013-09-26 19:57:00,34.5,17.8,29.95,West,270,1.0,2.0,50,0.00,,,0.00,meteohub,2013-09-27 02:57:00,
2013-09-26 20:02:00,34.3,18.5,29.95,West,270,1.0,2.0,52,0.00,,,0.00,meteohub,2013-09-27 03:02:00,
2013-09-26 20:07:00,34.0,18.7,29.96,West,270,2.0,2.0,53,0.00,,,0.00,meteohub,2013-09-27 03:07:00,
2013-09-26 20:12:00,33.8,18.5,29.96,West,270,1.0,2.0,53,0.00,,,0.00,meteohub,2013-09-27 03:12:00,
2013-09-26 20:17:00,33.4,18.1,29.96,West,270,1.0,2.0,53,0.00,,,0.00,meteohub,2013-09-27 03:17:00,
2013-09-26 20:22:00,33.3,18.0,29.96,West,270,1.0,2.0,53,0.00,,,0.00,meteohub,2013-09-27 03:22:00,
2013-09-26 20:27:00,33.1,17.8,29.96,West,270,0.0,2.0,53,0.00,,,0.00,meteohub,2013-09-27 03:27:00,
2013-09-26 20:32:00,32.7,17.4,29.96,West,270,1.0,2.0,53,0.00,,,0.00,meteohub,2013-09-27 03:32:00,
2013-09-26 20:37:00,32.4,17.1,29.96,West,270,1.0,2.0,53,0.00,,,0.00,meteohub,2013-09-27 03:37:00,
2013-09-26 20:42:00,32.0,16.9,29.96,West,270,1.0,1.0,53,0.00,,,0.00,meteohub,2013-09-27 03:42:00,
2013-09-26 20:48:00,32.0,17.2,29.97,West,270,1.0,1.0,54,0.00,,,0.00,meteohub,2013-09-27 03:48:00,
2013-09-26 20:53:00,31.6,16.9,29.97,West,270,0.0,1.0,54,0.00,,,0.00,meteohub,2013-09-27 03:53:00,
2013-09-26 20:58:00,31.3,16.5,29.97,West,270,1.0,1.0,54,0.00,,,0.00,meteohub,2013-09-27 03:58:00,
2013-09-26 21:01:00,30.9,16.7,29.97,West,270,1.0,1.0,55,0.00,,,0.00,meteohub,2013-09-27 04:01:00,
2013-09-26 21:02:00,30.9,16.7,29.97,West,270,1.0,1.0,55,0.00,,,0.00,meteohub,2013-09-27 04:02:00,
2013-09-26 21:07:00,30.9,17.1,29.97,West,270,0.0,1.0,56,0.00,,,0.00,meteohub,2013-09-27 04:07:00,
2013-09-26 21:12:00,30.9,17.1,29.97,West,270,1.0,1.0,56,0.00,,,0.00,meteohub,2013-09-27 04:12:00,
2013-09-26 21:17:00,30.9,17.1,29.97,West,270,0.0,2.0,56,0.00,,,0.00,meteohub,2013-09-27 04:17:00,
2013-09-26 21:22:00,30.7,16.9,29.97,West,270,1.0,2.0,56,0.00,,,0.00,meteohub,2013-09-27 04:22:00,
2013-09-26 21:27:00,30.7,17.2,29.97,West,270,1.0,2.0,57,0.00,,,0.00,meteohub,2013-09-27 04:27:00,
2013-09-26 21:32:00,30.7,17.2,29.98,West,270,1.0,1.0,57,0.00,,,0.00,meteohub,2013-09-27 04:32:00,
2013-09-26 21:37:00,30.6,17.1,29.98,West,270,1.0,1.0,57,0.00,,,0.00,meteohub,2013-09-27 04:37:00,
2013-09-26 21:42:00,30.4,17.4,29.98,West,270,1.0,1.0,58,0.00,,,0.00,meteohub,2013-09-27 04:42:00,
2013-09-26 21:47:00,30.4,17.4,29.98,West,270,1.0,1.0,58,0.00,,,0.00,meteohub,2013-09-27 04:47:00,
2013-09-26 21:52:00,30.2,17.6,29.98,West,270,1.0,2.0,59,0.00,,,0.00,meteohub,2013-09-27 04:52:00,
2013-09-26 21:57:00,30.0,17.4,29.98,West,270,1.0,2.0,59,0.00,,,0.00,meteohub,2013-09-27 04:57:00,
2013-09-26 22:02:00,30.0,17.8,29.98,West,270,1.0,2.0,60,0.00,,,0.00,meteohub,2013-09-27 05:02:00,
2013-09-26 22:07:00,30.0,18.1,29.99,West,270,1.0,2.0,61,0.00,,,0.00,meteohub,2013-09-27 05:07:00,
2013-09-26 22:12:00,30.0,18.1,29.99,West,270,1.0,2.0,61,0.00,,,0.00,meteohub,2013-09-27 05:12:00,
2013-09-26 22:17:00,30.0,18.1,29.99,West,270,1.0,2.0,61,0.00,,,0.00,meteohub,2013-09-27 05:17:00,
2013-09-26 22:22:00,29.8,18.0,29.99,West,270,1.0,2.0,61,0.00,,,0.00,meteohub,2013-09-27 05:22:00,
2013-09-26 22:27:00,29.8,18.5,29.99,West,270,1.0,2.0,62,0.00,,,0.00,meteohub,2013-09-27 05:27:00,
2013-09-26 22:32:00,29.7,18.3,29.99,West,270,1.0,1.0,62,0.00,,,0.00,meteohub,2013-09-27 05:32:00,
2013-09-26 22:37:00,29.5,18.1,29.99,West,270,1.0,1.0,62,0.00,,,0.00,meteohub,2013-09-27 05:37:00,
2013-09-26 22:42:00,29.5,18.1,29.99,West,270,1.0,2.0,62,0.00,,,0.00,meteohub,2013-09-27 05:42:00,
2013-09-26 22:47:00,29.3,18.0,29.99,West,270,1.0,2.0,62,0.00,,,0.00,meteohub,2013-09-27 05:47:00,
2013-09-26 22:52:00,29.3,18.0,29.99,West,270,1.0,2.0,62,0.00,,,0.00,meteohub,2013-09-27 05:52:00,
2013-09-26 22:57:00,29.1,17.8,29.99,West,270,0.0,2.0,62,0.00,,,0.00,meteohub,2013-09-27 05:57:00,
2013-09-26 23:02:00,28.9,17.6,29.99,West,270,1.0,1.0,62,0.00,,,0.00,meteohub,2013-09-27 06:02:00,
2013-09-26 23:07:00,28.9,18.0,30.00,West,270,1.0,2.0,63,0.00,,,0.00,meteohub,2013-09-27 06:07:00,
2013-09-26 23:12:00,28.9,18.0,30.00,West,270,1.0,2.0,63,0.00,,,0.00,meteohub,2013-09-27 06:12:00,
2013-09-26 23:17:00,28.9,18.0,30.00,West,270,1.0,2.0,63,0.00,,,0.00,meteohub,2013-09-27 06:17:00,
2013-09-26 23:22:00,28.8,17.8,30.00,West,270,1.0,1.0,63,0.00,,,0.00,meteohub,2013-09-27 06:22:00,
2013-09-26 23:27:00,28.9,18.0,30.00,West,270,1.0,1.0,63,0.00,,,0.00,meteohub,2013-09-27 06:27:00,
2013-09-26 23:32:00,28.9,18.3,30.00,West,270,0.0,1.0,64,0.00,,,0.00,meteohub,2013-09-27 06:32:00,
2013-09-26 23:37:00,28.8,18.1,30.01,West,270,1.0,1.0,64,0.00,,,0.00,meteohub,2013-09-27 06:37:00,
2013-09-26 23:42:00,28.9,18.3,30.00,West,270,1.0,1.0,64,0.00,,,0.00,meteohub,2013-09-27 06:42:00,
2013-09-26 23:47:00,28.9,18.3,30.00,West,270,1.0,2.0,64,0.00,,,0.00,meteohub,2013-09-27 06:47:00,
2013-09-26 23:53:00,28.8,18.1,30.00,West,270,1.0,2.0,64,0.00,,,0.00,meteohub,2013-09-27 06:53:00,
2013-09-26 23:58:00,28.8,18.5,30.00,West,270,1.0,2.0,65,0.00,,,0.00,meteohub,2013-09-27 06:58:00,